Carmo de Minas, Brazil
Current Conditions -  °F | °C
As of 5:00 PM on Monday 22 Dec 2014 (Local Time) from SBGW Reporting Station
Thunderstorm Thunderstorm  
Wind Chill: 82°   Ceiling: Unl
Heat Index: 86°   Visibility: 6mi
Dew Point: 70°   Wind: 12mph
Humidity: 66%   Direction: 250°WSW
Pressure: 29.88"   Gusts: NA
Location:  22.12°S, 45.13°W
Report Text: SBGW 221900Z 25010KT 220V290 9999 TS VCSH SCT025 FEW027CB BKN050 28/21 Q1012
Loading
Personal Weather Stations






























Interactive Weather Map New forecast layout! Learn more

10-Day Weather Forecast

Advertisements
Track Severe Weather on mobile